sensor_id;sensor_type;location;lat;lon;timestamp;P1;durP1;ratioP1;P2;durP2;ratioP2
52031;SDS011;38044;45.148;39.604;2022-10-16T00:01:59;4.18;;;3.00;;
52031;SDS011;38044;45.148;39.604;2022-10-16T00:04:25;7.60;;;3.60;;
52031;SDS011;38044;45.148;39.604;2022-10-16T00:06:51;5.57;;;3.53;;
52031;SDS011;38044;45.148;39.604;2022-10-16T00:09:17;5.88;;;3.50;;
52031;SDS011;38044;45.148;39.604;2022-10-16T00:11:43;8.20;;;3.67;;
52031;SDS011;38044;45.148;39.604;2022-10-16T00:14:10;4.90;;;3.67;;
52031;SDS011;38044;45.148;39.604;2022-10-16T00:16:38;4.68;;;3.53;;
52031;SDS011;38044;45.148;39.604;2022-10-16T00:19:04;4.88;;;3.50;;
52031;SDS011;38044;45.148;39.604;2022-10-16T00:21:33;7.72;;;3.45;;
52031;SDS011;38044;45.148;39.604;2022-10-16T00:24:00;4.18;;;3.35;;
52031;SDS011;38044;45.148;39.604;2022-10-16T00:26:33;5.32;;;3.15;;
52031;SDS011;38044;45.148;39.604;2022-10-16T00:29:00;5.75;;;3.08;;
52031;SDS011;38044;45.148;39.604;2022-10-16T00:31:26;7.20;;;3.42;;
52031;SDS011;38044;45.148;39.604;2022-10-16T00:33:53;4.10;;;2.92;;
52031;SDS011;38044;45.148;39.604;2022-10-16T00:36:20;3.83;;;3.00;;
52031;SDS011;38044;45.148;39.604;2022-10-16T00:38:52;6.18;;;3.10;;
52031;SDS011;38044;45.148;39.604;2022-10-16T00:41:20;4.95;;;2.97;;
52031;SDS011;38044;45.148;39.604;2022-10-16T00:43:51;4.38;;;3.42;;
52031;SDS011;38044;45.148;39.604;2022-10-16T00:49:04;4.50;;;3.20;;
52031;SDS011;38044;45.148;39.604;2022-10-16T00:51:41;6.80;;;3.58;;
52031;SDS011;38044;45.148;39.604;2022-10-16T00:56:46;5.70;;;3.97;;
52031;SDS011;38044;45.148;39.604;2022-10-16T00:59:19;4.43;;;3.10;;
52031;SDS011;38044;45.148;39.604;2022-10-16T01:01:50;5.70;;;3.40;;
52031;SDS011;38044;45.148;39.604;2022-10-16T01:04:17;5.57;;;3.35;;
52031;SDS011;38044;45.148;39.604;2022-10-16T01:18:23;6.90;;;3.70;;
52031;SDS011;38044;45.148;39.604;2022-10-16T01:21:08;6.22;;;3.47;;
52031;SDS011;38044;45.148;39.604;2022-10-16T01:23:56;5.30;;;2.95;;
52031;SDS011;38044;45.148;39.604;2022-10-16T01:29:30;4.90;;;3.03;;
52031;SDS011;38044;45.148;39.604;2022-10-16T01:35:26;4.82;;;3.35;;
52031;SDS011;38044;45.148;39.604;2022-10-16T01:38:03;8.82;;;3.72;;
52031;SDS011;38044;45.148;39.604;2022-10-16T01:40:34;5.47;;;3.53;;
52031;SDS011;38044;45.148;39.604;2022-10-16T01:43:05;5.90;;;3.10;;
52031;SDS011;38044;45.148;39.604;2022-10-16T01:45:36;4.78;;;3.30;;
52031;SDS011;38044;45.148;39.604;2022-10-16T01:48:04;6.85;;;4.00;;
52031;SDS011;38044;45.148;39.604;2022-10-16T01:50:33;5.88;;;3.50;;
52031;SDS011;38044;45.148;39.604;2022-10-16T01:53:05;7.55;;;3.60;;
52031;SDS011;38044;45.148;39.604;2022-10-16T01:55:35;4.07;;;3.22;;
52031;SDS011;38044;45.148;39.604;2022-10-16T01:58:04;6.57;;;3.90;;
52031;SDS011;38044;45.148;39.604;2022-10-16T02:00:33;8.48;;;4.05;;
52031;SDS011;38044;45.148;39.604;2022-10-16T02:03:03;4.93;;;3.33;;
52031;SDS011;38044;45.148;39.604;2022-10-16T02:05:32;6.55;;;3.80;;
52031;SDS011;38044;45.148;39.604;2022-10-16T02:08:05;5.70;;;3.75;;
52031;SDS011;38044;45.148;39.604;2022-10-16T02:10:32;6.82;;;3.70;;
52031;SDS011;38044;45.148;39.604;2022-10-16T02:15:39;6.30;;;3.60;;
52031;SDS011;38044;45.148;39.604;2022-10-16T02:18:06;6.07;;;4.15;;
52031;SDS011;38044;45.148;39.604;2022-10-16T02:21:22;5.07;;;3.70;;
52031;SDS011;38044;45.148;39.604;2022-10-16T02:26:35;5.80;;;3.93;;
52031;SDS011;38044;45.148;39.604;2022-10-16T02:29:12;4.70;;;3.40;;
52031;SDS011;38044;45.148;39.604;2022-10-16T02:31:44;7.78;;;3.80;;
52031;SDS011;38044;45.148;39.604;2022-10-16T02:34:13;4.97;;;3.85;;
52031;SDS011;38044;45.148;39.604;2022-10-16T02:36:41;6.07;;;3.80;;
52031;SDS011;38044;45.148;39.604;2022-10-16T02:39:09;6.22;;;3.78;;
52031;SDS011;38044;45.148;39.604;2022-10-16T02:41:35;5.28;;;3.10;;
52031;SDS011;38044;45.148;39.604;2022-10-16T02:44:01;7.75;;;3.80;;
52031;SDS011;38044;45.148;39.604;2022-10-16T02:46:27;5.35;;;3.65;;
52031;SDS011;38044;45.148;39.604;2022-10-16T02:48:53;7.97;;;3.67;;
52031;SDS011;38044;45.148;39.604;2022-10-16T02:51:19;6.00;;;3.55;;
52031;SDS011;38044;45.148;39.604;2022-10-16T02:53:45;5.45;;;3.60;;
52031;SDS011;38044;45.148;39.604;2022-10-16T02:56:11;7.70;;;4.28;;
52031;SDS011;38044;45.148;39.604;2022-10-16T02:58:37;6.55;;;3.78;;
52031;SDS011;38044;45.148;39.604;2022-10-16T03:01:03;6.25;;;3.67;;
52031;SDS011;38044;45.148;39.604;2022-10-16T03:03:29;6.60;;;3.45;;
52031;SDS011;38044;45.148;39.604;2022-10-16T03:05:54;6.45;;;3.35;;
52031;SDS011;38044;45.148;39.604;2022-10-16T03:08:20;4.75;;;3.78;;
52031;SDS011;38044;45.148;39.604;2022-10-16T03:10:49;5.47;;;3.78;;
52031;SDS011;38044;45.148;39.604;2022-10-16T03:13:15;6.90;;;3.55;;
52031;SDS011;38044;45.148;39.604;2022-10-16T03:15:41;4.85;;;3.00;;
52031;SDS011;38044;45.148;39.604;2022-10-16T03:18:07;5.95;;;3.33;;
52031;SDS011;38044;45.148;39.604;2022-10-16T03:20:32;6.35;;;3.60;;
52031;SDS011;38044;45.148;39.604;2022-10-16T03:22:58;6.70;;;3.20;;
52031;SDS011;38044;45.148;39.604;2022-10-16T03:25:24;5.00;;;2.92;;
52031;SDS011;38044;45.148;39.604;2022-10-16T03:27:50;4.82;;;3.30;;
52031;SDS011;38044;45.148;39.604;2022-10-16T03:30:16;7.03;;;3.50;;
52031;SDS011;38044;45.148;39.604;2022-10-16T03:32:43;4.60;;;3.35;;
52031;SDS011;38044;45.148;39.604;2022-10-16T03:35:09;4.32;;;3.20;;
52031;SDS011;38044;45.148;39.604;2022-10-16T03:37:35;8.02;;;3.58;;
52031;SDS011;38044;45.148;39.604;2022-10-16T03:40:01;5.22;;;3.40;;
52031;SDS011;38044;45.148;39.604;2022-10-16T03:42:28;6.72;;;3.40;;
52031;SDS011;38044;45.148;39.604;2022-10-16T03:44:53;6.38;;;3.50;;
52031;SDS011;38044;45.148;39.604;2022-10-16T03:47:19;6.70;;;3.90;;
52031;SDS011;38044;45.148;39.604;2022-10-16T03:49:47;4.72;;;3.22;;
52031;SDS011;38044;45.148;39.604;2022-10-16T03:52:13;5.57;;;3.38;;
52031;SDS011;38044;45.148;39.604;2022-10-16T03:54:39;7.95;;;3.58;;
52031;SDS011;38044;45.148;39.604;2022-10-16T03:57:05;5.40;;;3.45;;
52031;SDS011;38044;45.148;39.604;2022-10-16T03:59:31;4.63;;;3.20;;
52031;SDS011;38044;45.148;39.604;2022-10-16T04:01:56;4.25;;;3.40;;
52031;SDS011;38044;45.148;39.604;2022-10-16T04:04:22;4.70;;;3.50;;
52031;SDS011;38044;45.148;39.604;2022-10-16T04:06:50;4.40;;;3.15;;
52031;SDS011;38044;45.148;39.604;2022-10-16T04:09:16;4.68;;;3.40;;
52031;SDS011;38044;45.148;39.604;2022-10-16T04:11:42;5.13;;;3.63;;
52031;SDS011;38044;45.148;39.604;2022-10-16T04:14:08;10.15;;;3.78;;
52031;SDS011;38044;45.148;39.604;2022-10-16T04:16:33;5.13;;;3.47;;
52031;SDS011;38044;45.148;39.604;2022-10-16T04:18:59;6.55;;;3.35;;
52031;SDS011;38044;45.148;39.604;2022-10-16T04:21:25;4.75;;;3.13;;
52031;SDS011;38044;45.148;39.604;2022-10-16T04:23:51;5.38;;;3.22;;
52031;SDS011;38044;45.148;39.604;2022-10-16T04:26:17;4.97;;;3.00;;
52031;SDS011;38044;45.148;39.604;2022-10-16T04:28:43;6.95;;;2.88;;
52031;SDS011;38044;45.148;39.604;2022-10-16T04:31:09;5.80;;;2.97;;
52031;SDS011;38044;45.148;39.604;2022-10-16T04:33:35;3.83;;;2.63;;
52031;SDS011;38044;45.148;39.604;2022-10-16T04:36:01;5.30;;;3.17;;
52031;SDS011;38044;45.148;39.604;2022-10-16T04:38:28;3.55;;;2.85;;
52031;SDS011;38044;45.148;39.604;2022-10-16T04:40:53;3.05;;;2.72;;
52031;SDS011;38044;45.148;39.604;2022-10-16T04:43:19;5.63;;;3.00;;
52031;SDS011;38044;45.148;39.604;2022-10-16T04:45:46;3.00;;;2.67;;
52031;SDS011;38044;45.148;39.604;2022-10-16T04:48:12;3.33;;;2.38;;
52031;SDS011;38044;45.148;39.604;2022-10-16T04:50:38;3.35;;;2.72;;
52031;SDS011;38044;45.148;39.604;2022-10-16T04:53:04;5.70;;;2.80;;
52031;SDS011;38044;45.148;39.604;2022-10-16T04:55:30;4.43;;;2.72;;
52031;SDS011;38044;45.148;39.604;2022-10-16T04:57:56;5.22;;;2.80;;
52031;SDS011;38044;45.148;39.604;2022-10-16T05:00:22;3.72;;;2.42;;
52031;SDS011;38044;45.148;39.604;2022-10-16T05:02:49;3.55;;;2.65;;
52031;SDS011;38044;45.148;39.604;2022-10-16T05:05:15;3.05;;;2.75;;
52031;SDS011;38044;45.148;39.604;2022-10-16T05:07:41;5.10;;;2.63;;
52031;SDS011;38044;45.148;39.604;2022-10-16T05:10:07;4.30;;;2.80;;
52031;SDS011;38044;45.148;39.604;2022-10-16T05:12:33;3.25;;;2.78;;
52031;SDS011;38044;45.148;39.604;2022-10-16T05:15:01;7.38;;;3.00;;
52031;SDS011;38044;45.148;39.604;2022-10-16T05:17:27;5.00;;;2.95;;
52031;SDS011;38044;45.148;39.604;2022-10-16T05:19:53;3.67;;;2.80;;
52031;SDS011;38044;45.148;39.604;2022-10-16T05:22:19;5.25;;;2.65;;
52031;SDS011;38044;45.148;39.604;2022-10-16T05:24:45;4.20;;;2.80;;
52031;SDS011;38044;45.148;39.604;2022-10-16T05:27:11;4.10;;;2.97;;
52031;SDS011;38044;45.148;39.604;2022-10-16T05:29:44;8.52;;;2.63;;
52031;SDS011;38044;45.148;39.604;2022-10-16T05:32:14;3.92;;;2.60;;
52031;SDS011;38044;45.148;39.604;2022-10-16T05:34:41;4.50;;;3.00;;
52031;SDS011;38044;45.148;39.604;2022-10-16T05:37:07;4.05;;;2.63;;
52031;SDS011;38044;45.148;39.604;2022-10-16T05:39:34;5.32;;;3.00;;
52031;SDS011;38044;45.148;39.604;2022-10-16T05:42:02;6.68;;;3.08;;
52031;SDS011;38044;45.148;39.604;2022-10-16T05:44:28;3.25;;;2.70;;
52031;SDS011;38044;45.148;39.604;2022-10-16T05:46:54;4.55;;;2.97;;
52031;SDS011;38044;45.148;39.604;2022-10-16T05:49:20;3.83;;;3.10;;
52031;SDS011;38044;45.148;39.604;2022-10-16T05:51:46;3.88;;;3.08;;
52031;SDS011;38044;45.148;39.604;2022-10-16T05:54:11;5.35;;;3.20;;
52031;SDS011;38044;45.148;39.604;2022-10-16T05:56:37;6.30;;;3.17;;
52031;SDS011;38044;45.148;39.604;2022-10-16T05:59:03;5.18;;;2.95;;
52031;SDS011;38044;45.148;39.604;2022-10-16T06:01:30;4.88;;;3.00;;
52031;SDS011;38044;45.148;39.604;2022-10-16T06:03:56;6.03;;;3.05;;
52031;SDS011;38044;45.148;39.604;2022-10-16T06:06:23;3.53;;;2.75;;
52031;SDS011;38044;45.148;39.604;2022-10-16T06:08:51;5.25;;;3.20;;
52031;SDS011;38044;45.148;39.604;2022-10-16T06:11:20;4.97;;;2.90;;
52031;SDS011;38044;45.148;39.604;2022-10-16T06:13:51;4.25;;;2.58;;
52031;SDS011;38044;45.148;39.604;2022-10-16T06:16:18;7.22;;;3.03;;
52031;SDS011;38044;45.148;39.604;2022-10-16T06:18:45;6.03;;;3.20;;
52031;SDS011;38044;45.148;39.604;2022-10-16T06:21:16;4.70;;;3.22;;
52031;SDS011;38044;45.148;39.604;2022-10-16T06:23:44;3.75;;;2.85;;
52031;SDS011;38044;45.148;39.604;2022-10-16T06:26:12;5.82;;;3.13;;
52031;SDS011;38044;45.148;39.604;2022-10-16T06:28:39;8.50;;;2.97;;
52031;SDS011;38044;45.148;39.604;2022-10-16T06:31:06;4.10;;;2.80;;
52031;SDS011;38044;45.148;39.604;2022-10-16T06:33:33;3.67;;;3.15;;
52031;SDS011;38044;45.148;39.604;2022-10-16T06:36:03;6.53;;;3.72;;
52031;SDS011;38044;45.148;39.604;2022-10-16T06:38:32;4.40;;;3.28;;
52031;SDS011;38044;45.148;39.604;2022-10-16T06:40:58;34.75;;;5.35;;
52031;SDS011;38044;45.148;39.604;2022-10-16T06:43:24;4.18;;;3.28;;
52031;SDS011;38044;45.148;39.604;2022-10-16T06:45:53;3.72;;;2.90;;
52031;SDS011;38044;45.148;39.604;2022-10-16T06:48:20;4.55;;;3.40;;
52031;SDS011;38044;45.148;39.604;2022-10-16T06:53:27;4.07;;;2.80;;
52031;SDS011;38044;45.148;39.604;2022-10-16T06:55:54;5.50;;;3.42;;
52031;SDS011;38044;45.148;39.604;2022-10-16T06:58:21;4.50;;;3.15;;
52031;SDS011;38044;45.148;39.604;2022-10-16T07:00:47;4.80;;;2.92;;
52031;SDS011;38044;45.148;39.604;2022-10-16T07:03:13;4.65;;;3.58;;
52031;SDS011;38044;45.148;39.604;2022-10-16T07:05:40;3.85;;;3.20;;
52031;SDS011;38044;45.148;39.604;2022-10-16T07:08:07;6.40;;;3.10;;
52031;SDS011;38044;45.148;39.604;2022-10-16T07:10:34;8.00;;;3.30;;
52031;SDS011;38044;45.148;39.604;2022-10-16T07:13:00;5.22;;;3.33;;
52031;SDS011;38044;45.148;39.604;2022-10-16T07:15:26;17.77;;;4.60;;
52031;SDS011;38044;45.148;39.604;2022-10-16T07:17:52;5.05;;;3.28;;
52031;SDS011;38044;45.148;39.604;2022-10-16T07:20:19;6.65;;;3.63;;
52031;SDS011;38044;45.148;39.604;2022-10-16T07:22:45;5.00;;;3.30;;
52031;SDS011;38044;45.148;39.604;2022-10-16T07:25:11;6.25;;;4.03;;
52031;SDS011;38044;45.148;39.604;2022-10-16T07:27:37;4.13;;;3.33;;
52031;SDS011;38044;45.148;39.604;2022-10-16T07:30:03;7.57;;;3.80;;
52031;SDS011;38044;45.148;39.604;2022-10-16T07:32:30;4.10;;;3.70;;
52031;SDS011;38044;45.148;39.604;2022-10-16T07:34:56;4.47;;;4.07;;
52031;SDS011;38044;45.148;39.604;2022-10-16T07:37:22;7.75;;;4.05;;
52031;SDS011;38044;45.148;39.604;2022-10-16T07:39:48;7.40;;;3.63;;
52031;SDS011;38044;45.148;39.604;2022-10-16T07:42:14;7.43;;;3.50;;
52031;SDS011;38044;45.148;39.604;2022-10-16T07:44:40;5.68;;;4.25;;
52031;SDS011;38044;45.148;39.604;2022-10-16T07:47:06;5.13;;;4.50;;
52031;SDS011;38044;45.148;39.604;2022-10-16T07:49:32;8.48;;;4.32;;
52031;SDS011;38044;45.148;39.604;2022-10-16T07:51:58;5.40;;;4.15;;
52031;SDS011;38044;45.148;39.604;2022-10-16T07:54:24;7.03;;;4.20;;
52031;SDS011;38044;45.148;39.604;2022-10-16T07:56:49;8.23;;;4.22;;
52031;SDS011;38044;45.148;39.604;2022-10-16T07:59:15;4.97;;;3.72;;
52031;SDS011;38044;45.148;39.604;2022-10-16T08:01:42;5.00;;;4.03;;
52031;SDS011;38044;45.148;39.604;2022-10-16T08:04:08;5.28;;;3.63;;
52031;SDS011;38044;45.148;39.604;2022-10-16T08:06:35;7.00;;;4.18;;
52031;SDS011;38044;45.148;39.604;2022-10-16T08:09:02;4.97;;;4.45;;
52031;SDS011;38044;45.148;39.604;2022-10-16T08:11:29;8.98;;;4.40;;
52031;SDS011;38044;45.148;39.604;2022-10-16T08:13:54;5.43;;;4.25;;
52031;SDS011;38044;45.148;39.604;2022-10-16T08:16:20;5.15;;;4.00;;
52031;SDS011;38044;45.148;39.604;2022-10-16T08:18:46;5.38;;;4.35;;
52031;SDS011;38044;45.148;39.604;2022-10-16T08:21:15;5.35;;;3.97;;
52031;SDS011;38044;45.148;39.604;2022-10-16T08:23:42;8.63;;;3.90;;
52031;SDS011;38044;45.148;39.604;2022-10-16T08:26:09;4.18;;;3.47;;
52031;SDS011;38044;45.148;39.604;2022-10-16T08:28:36;5.30;;;3.90;;
52031;SDS011;38044;45.148;39.604;2022-10-16T08:31:06;10.50;;;4.03;;
52031;SDS011;38044;45.148;39.604;2022-10-16T08:33:32;7.13;;;4.03;;
52031;SDS011;38044;45.148;39.604;2022-10-16T08:36:00;5.45;;;3.60;;
52031;SDS011;38044;45.148;39.604;2022-10-16T08:38:26;4.85;;;3.63;;
52031;SDS011;38044;45.148;39.604;2022-10-16T08:40:52;6.05;;;4.05;;
52031;SDS011;38044;45.148;39.604;2022-10-16T08:43:32;7.00;;;4.30;;
52031;SDS011;38044;45.148;39.604;2022-10-16T08:48:48;7.38;;;3.45;;
52031;SDS011;38044;45.148;39.604;2022-10-16T08:51:37;5.30;;;3.63;;
52031;SDS011;38044;45.148;39.604;2022-10-16T08:56:53;4.63;;;3.60;;
52031;SDS011;38044;45.148;39.604;2022-10-16T08:59:21;4.30;;;3.53;;
52031;SDS011;38044;45.148;39.604;2022-10-16T09:01:47;34.03;;;4.57;;
52031;SDS011;38044;45.148;39.604;2022-10-16T09:04:24;4.28;;;3.60;;
52031;SDS011;38044;45.148;39.604;2022-10-16T09:07:04;6.28;;;3.85;;
52031;SDS011;38044;45.148;39.604;2022-10-16T09:12:40;17.85;;;4.05;;
52031;SDS011;38044;45.148;39.604;2022-10-16T09:23:36;3.63;;;2.72;;
52031;SDS011;38044;45.148;39.604;2022-10-16T09:26:03;5.70;;;3.22;;
52031;SDS011;38044;45.148;39.604;2022-10-16T09:28:31;5.88;;;2.95;;
52031;SDS011;38044;45.148;39.604;2022-10-16T09:30:57;5.30;;;3.08;;
52031;SDS011;38044;45.148;39.604;2022-10-16T09:33:28;4.22;;;2.80;;
52031;SDS011;38044;45.148;39.604;2022-10-16T09:35:59;7.68;;;2.67;;
52031;SDS011;38044;45.148;39.604;2022-10-16T09:38:29;4.13;;;2.72;;
52031;SDS011;38044;45.148;39.604;2022-10-16T09:41:00;6.20;;;2.95;;
52031;SDS011;38044;45.148;39.604;2022-10-16T09:43:40;3.63;;;2.40;;
52031;SDS011;38044;45.148;39.604;2022-10-16T09:46:21;5.65;;;2.50;;
52031;SDS011;38044;45.148;39.604;2022-10-16T09:48:56;7.53;;;2.80;;
52031;SDS011;38044;45.148;39.604;2022-10-16T09:51:32;3.83;;;2.28;;
52031;SDS011;38044;45.148;39.604;2022-10-16T09:56:36;4.85;;;2.55;;
52031;SDS011;38044;45.148;39.604;2022-10-16T09:59:16;5.50;;;2.47;;
52031;SDS011;38044;45.148;39.604;2022-10-16T10:01:47;3.40;;;2.05;;
52031;SDS011;38044;45.148;39.604;2022-10-16T10:04:13;3.83;;;2.38;;
52031;SDS011;38044;45.148;39.604;2022-10-16T10:06:43;7.20;;;2.50;;
52031;SDS011;38044;45.148;39.604;2022-10-16T10:12:06;4.22;;;2.40;;
52031;SDS011;38044;45.148;39.604;2022-10-16T10:14:50;9.63;;;2.50;;
52031;SDS011;38044;45.148;39.604;2022-10-16T10:17:47;3.40;;;2.03;;
52031;SDS011;38044;45.148;39.604;2022-10-16T10:22:55;6.95;;;2.13;;
52031;SDS011;38044;45.148;39.604;2022-10-16T10:28:25;2.63;;;1.85;;
52031;SDS011;38044;45.148;39.604;2022-10-16T10:36:38;6.85;;;2.90;;
52031;SDS011;38044;45.148;39.604;2022-10-16T10:49:50;7.60;;;4.25;;
52031;SDS011;38044;45.148;39.604;2022-10-16T10:55:09;2.92;;;2.10;;
52031;SDS011;38044;45.148;39.604;2022-10-16T11:00:40;5.15;;;1.92;;
52031;SDS011;38044;45.148;39.604;2022-10-16T11:06:14;3.90;;;2.42;;
52031;SDS011;38044;45.148;39.604;2022-10-16T11:11:13;5.75;;;2.70;;
52031;SDS011;38044;45.148;39.604;2022-10-16T11:13:50;4.43;;;2.33;;
52031;SDS011;38044;45.148;39.604;2022-10-16T11:16:36;3.40;;;1.95;;
52031;SDS011;38044;45.148;39.604;2022-10-16T11:19:31;4.10;;;1.70;;
52031;SDS011;38044;45.148;39.604;2022-10-16T11:24:45;22.52;;;3.08;;
52031;SDS011;38044;45.148;39.604;2022-10-16T11:27:40;3.75;;;1.85;;
52031;SDS011;38044;45.148;39.604;2022-10-16T11:30:16;4.18;;;1.70;;
52031;SDS011;38044;45.148;39.604;2022-10-16T11:35:38;4.28;;;1.90;;
52031;SDS011;38044;45.148;39.604;2022-10-16T11:38:27;3.92;;;1.90;;
52031;SDS011;38044;45.148;39.604;2022-10-16T11:43:43;5.45;;;1.58;;
52031;SDS011;38044;45.148;39.604;2022-10-16T11:46:19;2.17;;;1.58;;
52031;SDS011;38044;45.148;39.604;2022-10-16T11:54:35;4.13;;;2.15;;
52031;SDS011;38044;45.148;39.604;2022-10-16T11:57:16;3.22;;;1.63;;
52031;SDS011;38044;45.148;39.604;2022-10-16T11:59:55;4.32;;;1.95;;
52031;SDS011;38044;45.148;39.604;2022-10-16T12:08:12;6.47;;;2.13;;
52031;SDS011;38044;45.148;39.604;2022-10-16T12:10:42;4.40;;;2.28;;
52031;SDS011;38044;45.148;39.604;2022-10-16T12:16:05;3.05;;;1.30;;
52031;SDS011;38044;45.148;39.604;2022-10-16T12:18:32;17.50;;;2.17;;
52031;SDS011;38044;45.148;39.604;2022-10-16T12:20:58;8.00;;;4.90;;
52031;SDS011;38044;45.148;39.604;2022-10-16T12:23:30;4.55;;;1.90;;
52031;SDS011;38044;45.148;39.604;2022-10-16T12:25:57;6.70;;;1.83;;
52031;SDS011;38044;45.148;39.604;2022-10-16T12:28:27;4.10;;;1.70;;
52031;SDS011;38044;45.148;39.604;2022-10-16T12:31:01;6.72;;;2.03;;
52031;SDS011;38044;45.148;39.604;2022-10-16T12:33:30;9.00;;;4.43;;
52031;SDS011;38044;45.148;39.604;2022-10-16T12:36:03;4.50;;;3.10;;
52031;SDS011;38044;45.148;39.604;2022-10-16T12:41:25;5.10;;;2.78;;
52031;SDS011;38044;45.148;39.604;2022-10-16T12:43:55;5.63;;;3.25;;
52031;SDS011;38044;45.148;39.604;2022-10-16T12:46:24;4.38;;;2.63;;
52031;SDS011;38044;45.148;39.604;2022-10-16T12:49:47;4.72;;;3.20;;
52031;SDS011;38044;45.148;39.604;2022-10-16T12:51:53;6.43;;;4.78;;
52031;SDS011;38044;45.148;39.604;2022-10-16T13:16:38;13.30;;;8.18;;
52031;SDS011;38044;45.148;39.604;2022-10-16T13:29:32;24.85;;;17.35;;
52031;SDS011;38044;45.148;39.604;2022-10-16T13:32:06;14.32;;;12.00;;
52031;SDS011;38044;45.148;39.604;2022-10-16T13:34:41;40.30;;;28.02;;
52031;SDS011;38044;45.148;39.604;2022-10-16T13:37:20;17.10;;;9.05;;
52031;SDS011;38044;45.148;39.604;2022-10-16T13:39:48;59.80;;;40.03;;
52031;SDS011;38044;45.148;39.604;2022-10-16T13:42:33;66.55;;;42.65;;
52031;SDS011;38044;45.148;39.604;2022-10-16T13:44:59;14.77;;;9.80;;
52031;SDS011;38044;45.148;39.604;2022-10-16T13:47:26;4.07;;;2.50;;
52031;SDS011;38044;45.148;39.604;2022-10-16T13:53:02;3.58;;;1.80;;
52031;SDS011;38044;45.148;39.604;2022-10-16T13:55:31;31.48;;;2.47;;
52031;SDS011;38044;45.148;39.604;2022-10-16T13:58:07;2.25;;;1.50;;
52031;SDS011;38044;45.148;39.604;2022-10-16T14:00:37;7.85;;;4.28;;
52031;SDS011;38044;45.148;39.604;2022-10-16T14:03:07;46.10;;;20.80;;
52031;SDS011;38044;45.148;39.604;2022-10-16T14:05:49;88.20;;;45.20;;
52031;SDS011;38044;45.148;39.604;2022-10-16T14:08:17;152.60;;;78.28;;
52031;SDS011;38044;45.148;39.604;2022-10-16T14:10:46;120.97;;;60.20;;
52031;SDS011;38044;45.148;39.604;2022-10-16T14:13:16;39.97;;;18.92;;
52031;SDS011;38044;45.148;39.604;2022-10-16T14:15:49;10.75;;;6.80;;
52031;SDS011;38044;45.148;39.604;2022-10-16T14:18:20;7.55;;;4.93;;
52031;SDS011;38044;45.148;39.604;2022-10-16T14:20:49;6.28;;;3.25;;
52031;SDS011;38044;45.148;39.604;2022-10-16T14:28:34;3.25;;;2.03;;
52031;SDS011;38044;45.148;39.604;2022-10-16T14:33:49;4.20;;;1.95;;
52031;SDS011;38044;45.148;39.604;2022-10-16T14:36:15;2.63;;;2.00;;
52031;SDS011;38044;45.148;39.604;2022-10-16T14:41:21;6.75;;;3.50;;
52031;SDS011;38044;45.148;39.604;2022-10-16T14:44:00;4.35;;;1.80;;
52031;SDS011;38044;45.148;39.604;2022-10-16T14:46:33;8.77;;;2.05;;
52031;SDS011;38044;45.148;39.604;2022-10-16T14:51:37;2.10;;;1.30;;
52031;SDS011;38044;45.148;39.604;2022-10-16T14:54:04;2.50;;;1.40;;
52031;SDS011;38044;45.148;39.604;2022-10-16T14:56:31;2.78;;;1.55;;
52031;SDS011;38044;45.148;39.604;2022-10-16T14:59:13;3.45;;;1.52;;
52031;SDS011;38044;45.148;39.604;2022-10-16T15:04:42;2.72;;;1.63;;
52031;SDS011;38044;45.148;39.604;2022-10-16T15:07:08;1.95;;;1.58;;
52031;SDS011;38044;45.148;39.604;2022-10-16T15:09:34;3.58;;;1.67;;
52031;SDS011;38044;45.148;39.604;2022-10-16T15:12:00;1.70;;;1.60;;
52031;SDS011;38044;45.148;39.604;2022-10-16T15:14:25;2.00;;;1.40;;
52031;SDS011;38044;45.148;39.604;2022-10-16T15:16:51;3.05;;;2.10;;
52031;SDS011;38044;45.148;39.604;2022-10-16T15:19:17;10.48;;;6.45;;
52031;SDS011;38044;45.148;39.604;2022-10-16T15:21:43;4.75;;;2.20;;
52031;SDS011;38044;45.148;39.604;2022-10-16T15:24:11;3.22;;;2.00;;
52031;SDS011;38044;45.148;39.604;2022-10-16T15:26:38;3.30;;;2.05;;
52031;SDS011;38044;45.148;39.604;2022-10-16T15:29:05;3.55;;;2.03;;
52031;SDS011;38044;45.148;39.604;2022-10-16T15:31:31;3.60;;;2.05;;
52031;SDS011;38044;45.148;39.604;2022-10-16T15:33:57;2.55;;;1.80;;
52031;SDS011;38044;45.148;39.604;2022-10-16T15:36:31;3.17;;;1.55;;
52031;SDS011;38044;45.148;39.604;2022-10-16T15:39:01;3.40;;;2.17;;
52031;SDS011;38044;45.148;39.604;2022-10-16T15:41:28;2.35;;;1.70;;
52031;SDS011;38044;45.148;39.604;2022-10-16T15:43:54;3.95;;;2.50;;
52031;SDS011;38044;45.148;39.604;2022-10-16T15:46:21;3.20;;;2.10;;
52031;SDS011;38044;45.148;39.604;2022-10-16T15:48:51;2.85;;;1.95;;
52031;SDS011;38044;45.148;39.604;2022-10-16T15:51:22;4.07;;;2.10;;
52031;SDS011;38044;45.148;39.604;2022-10-16T15:53:47;4.05;;;1.73;;
52031;SDS011;38044;45.148;39.604;2022-10-16T15:56:14;4.72;;;1.83;;
52031;SDS011;38044;45.148;39.604;2022-10-16T15:58:40;2.42;;;1.98;;
52031;SDS011;38044;45.148;39.604;2022-10-16T16:01:07;2.45;;;1.60;;
52031;SDS011;38044;45.148;39.604;2022-10-16T16:03:35;3.35;;;1.85;;
52031;SDS011;38044;45.148;39.604;2022-10-16T16:06:05;2.75;;;1.70;;
52031;SDS011;38044;45.148;39.604;2022-10-16T16:08:33;1.75;;;1.42;;
52031;SDS011;38044;45.148;39.604;2022-10-16T16:13:35;3.83;;;1.73;;
52031;SDS011;38044;45.148;39.604;2022-10-16T16:16:06;3.38;;;1.50;;
52031;SDS011;38044;45.148;39.604;2022-10-16T16:18:36;2.25;;;1.73;;
52031;SDS011;38044;45.148;39.604;2022-10-16T16:21:03;3.10;;;1.73;;
52031;SDS011;38044;45.148;39.604;2022-10-16T16:23:29;2.55;;;1.75;;
52031;SDS011;38044;45.148;39.604;2022-10-16T16:26:06;3.60;;;2.10;;
52031;SDS011;38044;45.148;39.604;2022-10-16T16:28:36;2.60;;;2.10;;
52031;SDS011;38044;45.148;39.604;2022-10-16T16:31:03;3.22;;;2.13;;
52031;SDS011;38044;45.148;39.604;2022-10-16T16:33:29;2.75;;;2.10;;
52031;SDS011;38044;45.148;39.604;2022-10-16T16:36:00;3.85;;;2.17;;
52031;SDS011;38044;45.148;39.604;2022-10-16T16:38:27;2.75;;;2.50;;
52031;SDS011;38044;45.148;39.604;2022-10-16T16:40:54;3.85;;;2.70;;
52031;SDS011;38044;45.148;39.604;2022-10-16T16:43:26;3.40;;;2.38;;
52031;SDS011;38044;45.148;39.604;2022-10-16T16:45:52;3.30;;;1.98;;
52031;SDS011;38044;45.148;39.604;2022-10-16T16:48:19;5.03;;;2.22;;
52031;SDS011;38044;45.148;39.604;2022-10-16T16:50:46;3.75;;;2.40;;
52031;SDS011;38044;45.148;39.604;2022-10-16T16:53:12;4.40;;;2.10;;
52031;SDS011;38044;45.148;39.604;2022-10-16T16:55:38;4.90;;;2.42;;
52031;SDS011;38044;45.148;39.604;2022-10-16T16:58:04;3.05;;;2.35;;
52031;SDS011;38044;45.148;39.604;2022-10-16T17:00:30;3.88;;;2.28;;
52031;SDS011;38044;45.148;39.604;2022-10-16T17:02:56;4.72;;;2.45;;
52031;SDS011;38044;45.148;39.604;2022-10-16T17:05:22;4.32;;;2.45;;
52031;SDS011;38044;45.148;39.604;2022-10-16T17:07:49;7.93;;;2.95;;
52031;SDS011;38044;45.148;39.604;2022-10-16T17:10:14;3.92;;;2.53;;
52031;SDS011;38044;45.148;39.604;2022-10-16T17:12:40;3.35;;;2.63;;
52031;SDS011;38044;45.148;39.604;2022-10-16T17:15:06;4.60;;;2.47;;
52031;SDS011;38044;45.148;39.604;2022-10-16T17:17:33;5.70;;;3.17;;
52031;SDS011;38044;45.148;39.604;2022-10-16T17:19:58;4.72;;;2.75;;
52031;SDS011;38044;45.148;39.604;2022-10-16T17:22:24;5.90;;;2.88;;
52031;SDS011;38044;45.148;39.604;2022-10-16T17:24:50;5.38;;;2.55;;
52031;SDS011;38044;45.148;39.604;2022-10-16T17:27:18;3.85;;;2.70;;
52031;SDS011;38044;45.148;39.604;2022-10-16T17:29:44;5.90;;;2.85;;
52031;SDS011;38044;45.148;39.604;2022-10-16T17:32:09;5.75;;;2.42;;